Moneta, Iowa
Current Conditions -  °F | °C
As of 1:53 AM on Monday 26 Jan 2015 (Local Time) from KSPW Reporting Station
Few Clouds Few Clouds  
Wind Chill: 23°   Ceiling: Unl
Heat Index: 32°   Visibility: 10mi
Dew Point: 29°   Wind: 13mph
Humidity: 88%   Direction: 200°SSW
Pressure: 29.9"   Gusts: NA
Location:  43.1758°N, 95.4927°W
Report Text: KSPW 260753Z AUTO 20011KT 10SM FEW085 00/M02 A2990 RMK AO2 SLP139 T00001017 TSNO
Loading
Personal Weather Stations






























Interactive Weather Map New forecast layout! Learn more

10-Day Weather Forecast

Advertisements
Track Severe Weather on mobile